sensor_id;sensor_type;location;lat;lon;timestamp;P1;durP1;ratioP1;P2;durP2;ratioP2
19434;SDS011;9853;50.848;4.108;2022-11-20T00:00:40;109.83;;;39.70;;
19434;SDS011;9853;50.848;4.108;2022-11-20T00:02:41;124.20;;;39.53;;
19434;SDS011;9853;50.848;4.108;2022-11-20T00:04:41;124.73;;;39.97;;
19434;SDS011;9853;50.848;4.108;2022-11-20T00:06:42;107.23;;;37.77;;
19434;SDS011;9853;50.848;4.108;2022-11-20T00:08:43;124.60;;;41.00;;
19434;SDS011;9853;50.848;4.108;2022-11-20T00:10:44;139.97;;;45.20;;
19434;SDS011;9853;50.848;4.108;2022-11-20T00:12:45;129.67;;;41.93;;
19434;SDS011;9853;50.848;4.108;2022-11-20T00:14:45;139.63;;;41.43;;
19434;SDS011;9853;50.848;4.108;2022-11-20T00:16:46;147.07;;;41.30;;
19434;SDS011;9853;50.848;4.108;2022-11-20T00:18:47;148.33;;;41.90;;
19434;SDS011;9853;50.848;4.108;2022-11-20T00:20:48;126.17;;;41.57;;
19434;SDS011;9853;50.848;4.108;2022-11-20T00:22:49;116.43;;;39.67;;
19434;SDS011;9853;50.848;4.108;2022-11-20T00:24:50;136.10;;;41.10;;
19434;SDS011;9853;50.848;4.108;2022-11-20T00:26:51;134.20;;;41.57;;
19434;SDS011;9853;50.848;4.108;2022-11-20T00:28:52;133.77;;;42.50;;
19434;SDS011;9853;50.848;4.108;2022-11-20T00:31:05;145.13;;;43.57;;
19434;SDS011;9853;50.848;4.108;2022-11-20T00:33:06;123.03;;;40.23;;
19434;SDS011;9853;50.848;4.108;2022-11-20T00:35:07;119.23;;;39.93;;
19434;SDS011;9853;50.848;4.108;2022-11-20T00:37:08;141.97;;;42.87;;
19434;SDS011;9853;50.848;4.108;2022-11-20T00:39:09;134.17;;;41.43;;
19434;SDS011;9853;50.848;4.108;2022-11-20T00:41:10;119.60;;;40.47;;
19434;SDS011;9853;50.848;4.108;2022-11-20T00:43:13;121.13;;;40.73;;
19434;SDS011;9853;50.848;4.108;2022-11-20T00:45:13;142.10;;;42.57;;
19434;SDS011;9853;50.848;4.108;2022-11-20T00:47:14;126.60;;;41.67;;
19434;SDS011;9853;50.848;4.108;2022-11-20T00:49:15;130.20;;;40.50;;
19434;SDS011;9853;50.848;4.108;2022-11-20T00:51:17;136.53;;;42.17;;
19434;SDS011;9853;50.848;4.108;2022-11-20T00:53:18;123.17;;;40.43;;
19434;SDS011;9853;50.848;4.108;2022-11-20T00:55:20;132.57;;;40.20;;
19434;SDS011;9853;50.848;4.108;2022-11-20T00:57:20;118.17;;;40.13;;
19434;SDS011;9853;50.848;4.108;2022-11-20T00:59:21;124.20;;;41.07;;
19434;SDS011;9853;50.848;4.108;2022-11-20T01:01:23;118.07;;;39.03;;
19434;SDS011;9853;50.848;4.108;2022-11-20T01:03:24;115.43;;;39.73;;
19434;SDS011;9853;50.848;4.108;2022-11-20T01:05:25;114.37;;;37.80;;
19434;SDS011;9853;50.848;4.108;2022-11-20T01:07:26;115.27;;;37.33;;
19434;SDS011;9853;50.848;4.108;2022-11-20T01:09:26;116.20;;;37.63;;
19434;SDS011;9853;50.848;4.108;2022-11-20T01:11:32;111.87;;;37.10;;
19434;SDS011;9853;50.848;4.108;2022-11-20T01:13:35;94.30;;;35.87;;
19434;SDS011;9853;50.848;4.108;2022-11-20T01:15:38;98.43;;;35.97;;
19434;SDS011;9853;50.848;4.108;2022-11-20T01:17:39;96.77;;;35.63;;
19434;SDS011;9853;50.848;4.108;2022-11-20T01:19:40;98.07;;;34.87;;
19434;SDS011;9853;50.848;4.108;2022-11-20T01:21:41;94.27;;;35.30;;
19434;SDS011;9853;50.848;4.108;2022-11-20T01:23:43;99.67;;;35.47;;
19434;SDS011;9853;50.848;4.108;2022-11-20T01:25:45;91.53;;;34.13;;
19434;SDS011;9853;50.848;4.108;2022-11-20T01:27:45;86.07;;;34.17;;
19434;SDS011;9853;50.848;4.108;2022-11-20T01:29:46;80.67;;;32.77;;
19434;SDS011;9853;50.848;4.108;2022-11-20T01:31:47;87.90;;;34.60;;
19434;SDS011;9853;50.848;4.108;2022-11-20T01:33:50;95.27;;;33.63;;
19434;SDS011;9853;50.848;4.108;2022-11-20T01:35:52;80.83;;;30.90;;
19434;SDS011;9853;50.848;4.108;2022-11-20T01:37:53;86.47;;;34.10;;
19434;SDS011;9853;50.848;4.108;2022-11-20T01:39:54;90.50;;;33.53;;
19434;SDS011;9853;50.848;4.108;2022-11-20T01:41:55;89.93;;;33.27;;
19434;SDS011;9853;50.848;4.108;2022-11-20T01:44:16;92.93;;;33.70;;
19434;SDS011;9853;50.848;4.108;2022-11-20T01:46:19;86.30;;;33.60;;
19434;SDS011;9853;50.848;4.108;2022-11-20T01:48:20;85.97;;;33.23;;
19434;SDS011;9853;50.848;4.108;2022-11-20T01:50:24;85.57;;;33.17;;
19434;SDS011;9853;50.848;4.108;2022-11-20T01:52:39;88.50;;;31.83;;
19434;SDS011;9853;50.848;4.108;2022-11-20T01:54:46;88.13;;;34.27;;
19434;SDS011;9853;50.848;4.108;2022-11-20T01:56:53;93.90;;;34.60;;
19434;SDS011;9853;50.848;4.108;2022-11-20T01:58:58;82.97;;;33.47;;
19434;SDS011;9853;50.848;4.108;2022-11-20T02:01:01;82.17;;;33.13;;
19434;SDS011;9853;50.848;4.108;2022-11-20T02:03:03;84.50;;;32.87;;
19434;SDS011;9853;50.848;4.108;2022-11-20T02:05:20;82.77;;;32.33;;
19434;SDS011;9853;50.848;4.108;2022-11-20T02:07:32;86.10;;;33.83;;
19434;SDS011;9853;50.848;4.108;2022-11-20T02:09:33;88.53;;;33.20;;
19434;SDS011;9853;50.848;4.108;2022-11-20T02:11:34;89.77;;;32.53;;
19434;SDS011;9853;50.848;4.108;2022-11-20T02:13:34;90.47;;;34.03;;
19434;SDS011;9853;50.848;4.108;2022-11-20T02:15:44;95.90;;;34.57;;
19434;SDS011;9853;50.848;4.108;2022-11-20T02:17:46;85.17;;;33.40;;
19434;SDS011;9853;50.848;4.108;2022-11-20T02:19:46;85.97;;;33.33;;
19434;SDS011;9853;50.848;4.108;2022-11-20T02:26:04;78.53;;;31.53;;
19434;SDS011;9853;50.848;4.108;2022-11-20T02:28:09;76.33;;;31.23;;
19434;SDS011;9853;50.848;4.108;2022-11-20T02:30:10;79.90;;;31.67;;
19434;SDS011;9853;50.848;4.108;2022-11-20T02:34:44;74.53;;;31.70;;
19434;SDS011;9853;50.848;4.108;2022-11-20T02:36:45;81.97;;;31.77;;
19434;SDS011;9853;50.848;4.108;2022-11-20T02:38:48;78.53;;;31.57;;
19434;SDS011;9853;50.848;4.108;2022-11-20T02:40:49;77.30;;;30.93;;
19434;SDS011;9853;50.848;4.108;2022-11-20T02:42:53;73.93;;;29.80;;
19434;SDS011;9853;50.848;4.108;2022-11-20T02:44:55;73.03;;;29.83;;
19434;SDS011;9853;50.848;4.108;2022-11-20T02:46:58;73.47;;;30.67;;
19434;SDS011;9853;50.848;4.108;2022-11-20T02:49:00;68.63;;;29.87;;
19434;SDS011;9853;50.848;4.108;2022-11-20T02:51:02;75.70;;;31.50;;
19434;SDS011;9853;50.848;4.108;2022-11-20T02:53:03;71.70;;;29.57;;
19434;SDS011;9853;50.848;4.108;2022-11-20T02:55:04;84.43;;;32.23;;
19434;SDS011;9853;50.848;4.108;2022-11-20T02:57:05;79.23;;;31.43;;
19434;SDS011;9853;50.848;4.108;2022-11-20T02:59:05;78.90;;;32.53;;
19434;SDS011;9853;50.848;4.108;2022-11-20T03:01:06;76.80;;;31.30;;
19434;SDS011;9853;50.848;4.108;2022-11-20T03:03:07;76.20;;;29.67;;
19434;SDS011;9853;50.848;4.108;2022-11-20T03:05:08;72.93;;;29.90;;
19434;SDS011;9853;50.848;4.108;2022-11-20T03:07:08;74.17;;;31.00;;
19434;SDS011;9853;50.848;4.108;2022-11-20T03:09:09;66.77;;;29.47;;
19434;SDS011;9853;50.848;4.108;2022-11-20T03:11:10;63.73;;;30.40;;
19434;SDS011;9853;50.848;4.108;2022-11-20T03:13:11;69.57;;;30.60;;
19434;SDS011;9853;50.848;4.108;2022-11-20T03:15:11;81.80;;;31.67;;
19434;SDS011;9853;50.848;4.108;2022-11-20T03:17:12;73.43;;;30.30;;
19434;SDS011;9853;50.848;4.108;2022-11-20T03:19:13;76.50;;;29.47;;
19434;SDS011;9853;50.848;4.108;2022-11-20T03:21:14;76.10;;;30.77;;
19434;SDS011;9853;50.848;4.108;2022-11-20T03:23:15;74.17;;;30.67;;
19434;SDS011;9853;50.848;4.108;2022-11-20T03:25:16;64.27;;;29.07;;
19434;SDS011;9853;50.848;4.108;2022-11-20T03:27:16;75.53;;;30.83;;
19434;SDS011;9853;50.848;4.108;2022-11-20T03:29:17;71.97;;;29.80;;
19434;SDS011;9853;50.848;4.108;2022-11-20T03:31:19;76.77;;;30.53;;
19434;SDS011;9853;50.848;4.108;2022-11-20T03:33:27;73.10;;;29.83;;
19434;SDS011;9853;50.848;4.108;2022-11-20T03:35:28;72.40;;;29.30;;
19434;SDS011;9853;50.848;4.108;2022-11-20T03:37:29;73.00;;;29.73;;
19434;SDS011;9853;50.848;4.108;2022-11-20T03:39:29;82.13;;;29.93;;
19434;SDS011;9853;50.848;4.108;2022-11-20T03:41:31;73.63;;;29.83;;
19434;SDS011;9853;50.848;4.108;2022-11-20T03:43:35;71.77;;;29.93;;
19434;SDS011;9853;50.848;4.108;2022-11-20T03:45:36;75.43;;;29.93;;
19434;SDS011;9853;50.848;4.108;2022-11-20T03:47:36;77.30;;;31.33;;
19434;SDS011;9853;50.848;4.108;2022-11-20T03:49:37;84.30;;;30.43;;
19434;SDS011;9853;50.848;4.108;2022-11-20T03:51:38;70.80;;;28.40;;
19434;SDS011;9853;50.848;4.108;2022-11-20T03:53:39;73.00;;;29.43;;
19434;SDS011;9853;50.848;4.108;2022-11-20T03:55:40;72.83;;;28.57;;
19434;SDS011;9853;50.848;4.108;2022-11-20T03:57:41;77.03;;;30.33;;
19434;SDS011;9853;50.848;4.108;2022-11-20T03:59:42;83.40;;;30.80;;
19434;SDS011;9853;50.848;4.108;2022-11-20T04:01:43;71.47;;;29.93;;
19434;SDS011;9853;50.848;4.108;2022-11-20T04:03:43;70.97;;;28.87;;
19434;SDS011;9853;50.848;4.108;2022-11-20T04:05:45;69.60;;;29.40;;
19434;SDS011;9853;50.848;4.108;2022-11-20T04:07:45;77.53;;;29.83;;
19434;SDS011;9853;50.848;4.108;2022-11-20T04:09:46;83.43;;;30.73;;
19434;SDS011;9853;50.848;4.108;2022-11-20T04:11:47;81.20;;;30.27;;
19434;SDS011;9853;50.848;4.108;2022-11-20T04:13:51;70.87;;;29.80;;
19434;SDS011;9853;50.848;4.108;2022-11-20T04:15:57;80.57;;;30.30;;
19434;SDS011;9853;50.848;4.108;2022-11-20T04:17:58;76.47;;;28.77;;
19434;SDS011;9853;50.848;4.108;2022-11-20T04:19:58;67.37;;;28.93;;
19434;SDS011;9853;50.848;4.108;2022-11-20T04:21:59;87.73;;;30.87;;
19434;SDS011;9853;50.848;4.108;2022-11-20T04:24:00;89.57;;;31.57;;
19434;SDS011;9853;50.848;4.108;2022-11-20T04:26:07;91.70;;;30.17;;
19434;SDS011;9853;50.848;4.108;2022-11-20T04:28:09;95.33;;;32.60;;
19434;SDS011;9853;50.848;4.108;2022-11-20T04:30:10;89.43;;;32.27;;
19434;SDS011;9853;50.848;4.108;2022-11-20T04:32:13;88.87;;;29.77;;
19434;SDS011;9853;50.848;4.108;2022-11-20T04:34:13;88.10;;;30.30;;
19434;SDS011;9853;50.848;4.108;2022-11-20T04:36:18;90.63;;;30.70;;
19434;SDS011;9853;50.848;4.108;2022-11-20T04:38:23;92.63;;;30.97;;
19434;SDS011;9853;50.848;4.108;2022-11-20T04:40:24;89.07;;;31.97;;
19434;SDS011;9853;50.848;4.108;2022-11-20T04:42:24;89.80;;;31.37;;
19434;SDS011;9853;50.848;4.108;2022-11-20T04:44:28;103.93;;;32.07;;
19434;SDS011;9853;50.848;4.108;2022-11-20T04:46:30;97.87;;;31.87;;
19434;SDS011;9853;50.848;4.108;2022-11-20T04:48:32;110.50;;;32.87;;
19434;SDS011;9853;50.848;4.108;2022-11-20T04:50:32;93.77;;;32.13;;
19434;SDS011;9853;50.848;4.108;2022-11-20T04:52:33;91.03;;;31.77;;
19434;SDS011;9853;50.848;4.108;2022-11-20T04:54:34;96.90;;;31.17;;
19434;SDS011;9853;50.848;4.108;2022-11-20T04:56:34;101.07;;;32.07;;
19434;SDS011;9853;50.848;4.108;2022-11-20T04:58:35;98.53;;;31.97;;
19434;SDS011;9853;50.848;4.108;2022-11-20T05:00:36;105.50;;;31.83;;
19434;SDS011;9853;50.848;4.108;2022-11-20T05:02:37;103.00;;;33.17;;
19434;SDS011;9853;50.848;4.108;2022-11-20T05:04:37;103.13;;;33.87;;
19434;SDS011;9853;50.848;4.108;2022-11-20T05:06:38;105.07;;;32.03;;
19434;SDS011;9853;50.848;4.108;2022-11-20T05:08:39;110.17;;;33.13;;
19434;SDS011;9853;50.848;4.108;2022-11-20T05:10:40;105.60;;;31.57;;
19434;SDS011;9853;50.848;4.108;2022-11-20T05:12:41;110.77;;;33.40;;
19434;SDS011;9853;50.848;4.108;2022-11-20T05:14:41;114.40;;;34.50;;
19434;SDS011;9853;50.848;4.108;2022-11-20T05:16:42;107.33;;;33.83;;
19434;SDS011;9853;50.848;4.108;2022-11-20T05:18:43;112.37;;;34.77;;
19434;SDS011;9853;50.848;4.108;2022-11-20T05:20:44;109.17;;;33.60;;
19434;SDS011;9853;50.848;4.108;2022-11-20T05:22:45;119.33;;;35.20;;
19434;SDS011;9853;50.848;4.108;2022-11-20T05:24:45;109.00;;;33.20;;
19434;SDS011;9853;50.848;4.108;2022-11-20T05:26:46;108.30;;;33.60;;
19434;SDS011;9853;50.848;4.108;2022-11-20T05:28:47;116.13;;;33.60;;
19434;SDS011;9853;50.848;4.108;2022-11-20T05:30:48;120.03;;;34.67;;
19434;SDS011;9853;50.848;4.108;2022-11-20T05:32:49;121.17;;;33.13;;
19434;SDS011;9853;50.848;4.108;2022-11-20T05:34:51;116.37;;;34.37;;
19434;SDS011;9853;50.848;4.108;2022-11-20T05:36:52;113.97;;;33.83;;
19434;SDS011;9853;50.848;4.108;2022-11-20T09:55:13;38.22;;;15.40;;
19434;SDS011;9853;50.848;4.108;2022-11-20T09:57:42;35.05;;;12.85;;
19434;SDS011;9853;50.848;4.108;2022-11-20T10:00:15;30.13;;;12.13;;
19434;SDS011;9853;50.848;4.108;2022-11-20T10:11:44;19.42;;;8.60;;
19434;SDS011;9853;50.848;4.108;2022-11-20T10:13:55;21.75;;;8.75;;
19434;SDS011;9853;50.848;4.108;2022-11-20T10:26:44;14.48;;;5.78;;
19434;SDS011;9853;50.848;4.108;2022-11-20T10:29:12;16.35;;;5.22;;
19434;SDS011;9853;50.848;4.108;2022-11-20T10:33:37;8.93;;;4.22;;
19434;SDS011;9853;50.848;4.108;2022-11-20T10:35:58;11.85;;;4.65;;
19434;SDS011;9853;50.848;4.108;2022-11-20T10:38:25;11.43;;;4.03;;
19434;SDS011;9853;50.848;4.108;2022-11-20T10:40:50;8.65;;;3.72;;
19434;SDS011;9853;50.848;4.108;2022-11-20T10:43:44;12.13;;;3.88;;
19434;SDS011;9853;50.848;4.108;2022-11-20T10:46:01;10.98;;;3.80;;
19434;SDS011;9853;50.848;4.108;2022-11-20T10:50:22;9.90;;;3.50;;
19434;SDS011;9853;50.848;4.108;2022-11-20T10:52:48;9.05;;;3.40;;
19434;SDS011;9853;50.848;4.108;2022-11-20T11:00:41;11.23;;;3.35;;
19434;SDS011;9853;50.848;4.108;2022-11-20T11:02:49;11.98;;;2.90;;
19434;SDS011;9853;50.848;4.108;2022-11-20T11:04:55;9.27;;;2.80;;
19434;SDS011;9853;50.848;4.108;2022-11-20T11:07:05;9.90;;;2.25;;
19434;SDS011;9853;50.848;4.108;2022-11-20T11:09:37;9.68;;;2.90;;
19434;SDS011;9853;50.848;4.108;2022-11-20T11:11:49;11.98;;;2.40;;
19434;SDS011;9853;50.848;4.108;2022-11-20T11:14:23;10.32;;;2.38;;
19434;SDS011;9853;50.848;4.108;2022-11-20T11:16:24;16.40;;;2.03;;
19434;SDS011;9853;50.848;4.108;2022-11-20T11:18:40;5.97;;;1.65;;
19434;SDS011;9853;50.848;4.108;2022-11-20T11:20:49;8.80;;;2.00;;
19434;SDS011;9853;50.848;4.108;2022-11-20T11:22:55;8.15;;;2.05;;
19434;SDS011;9853;50.848;4.108;2022-11-20T11:24:57;10.23;;;2.38;;
19434;SDS011;9853;50.848;4.108;2022-11-20T11:27:00;9.52;;;2.10;;
19434;SDS011;9853;50.848;4.108;2022-11-20T11:29:17;5.05;;;1.77;;
19434;SDS011;9853;50.848;4.108;2022-11-20T11:31:25;10.23;;;2.10;;
19434;SDS011;9853;50.848;4.108;2022-11-20T11:33:30;5.90;;;1.58;;
19434;SDS011;9853;50.848;4.108;2022-11-20T11:35:43;8.20;;;1.67;;
19434;SDS011;9853;50.848;4.108;2022-11-20T11:37:46;6.28;;;1.27;;
19434;SDS011;9853;50.848;4.108;2022-11-20T11:39:51;6.40;;;1.42;;
19434;SDS011;9853;50.848;4.108;2022-11-20T11:41:52;11.27;;;1.42;;
19434;SDS011;9853;50.848;4.108;2022-11-20T11:44:24;8.68;;;1.77;;
19434;SDS011;9853;50.848;4.108;2022-11-20T11:46:51;4.80;;;1.70;;
19434;SDS011;9853;50.848;4.108;2022-11-20T11:49:16;6.55;;;1.63;;
19434;SDS011;9853;50.848;4.108;2022-11-20T11:51:19;8.50;;;1.85;;
19434;SDS011;9853;50.848;4.108;2022-11-20T11:53:23;6.13;;;1.90;;
19434;SDS011;9853;50.848;4.108;2022-11-20T12:02:37;7.60;;;2.10;;
19434;SDS011;9853;50.848;4.108;2022-11-20T12:04:57;6.78;;;2.08;;
19434;SDS011;9853;50.848;4.108;2022-11-20T13:06:15;8.32;;;2.55;;
19434;SDS011;9853;50.848;4.108;2022-11-20T13:08:24;8.15;;;3.17;;
19434;SDS011;9853;50.848;4.108;2022-11-20T13:10:47;10.07;;;2.50;;
19434;SDS011;9853;50.848;4.108;2022-11-20T13:12:59;7.20;;;2.50;;
19434;SDS011;9853;50.848;4.108;2022-11-20T13:15:18;7.13;;;2.57;;
19434;SDS011;9853;50.848;4.108;2022-11-20T13:19:53;5.57;;;2.43;;
19434;SDS011;9853;50.848;4.108;2022-11-20T13:22:01;6.80;;;2.47;;
19434;SDS011;9853;50.848;4.108;2022-11-20T13:24:49;6.45;;;2.63;;
19434;SDS011;9853;50.848;4.108;2022-11-20T13:26:30;4.80;;;2.37;;
19434;SDS011;9853;50.848;4.108;2022-11-20T13:28:31;7.10;;;2.73;;
19434;SDS011;9853;50.848;4.108;2022-11-20T13:30:33;6.83;;;2.57;;
19434;SDS011;9853;50.848;4.108;2022-11-20T13:32:36;6.40;;;2.40;;
19434;SDS011;9853;50.848;4.108;2022-11-20T13:34:54;8.30;;;2.57;;
19434;SDS011;9853;50.848;4.108;2022-11-20T13:36:59;7.87;;;2.47;;
19434;SDS011;9853;50.848;4.108;2022-11-20T13:39:33;6.30;;;2.60;;
19434;SDS011;9853;50.848;4.108;2022-11-20T13:41:35;6.33;;;2.73;;
19434;SDS011;9853;50.848;4.108;2022-11-20T13:43:41;7.63;;;2.23;;
19434;SDS011;9853;50.848;4.108;2022-11-20T13:45:42;5.07;;;2.00;;
19434;SDS011;9853;50.848;4.108;2022-11-20T13:47:54;4.30;;;1.90;;
19434;SDS011;9853;50.848;4.108;2022-11-20T13:50:08;3.20;;;1.90;;
19434;SDS011;9853;50.848;4.108;2022-11-20T14:00:13;2.40;;;1.40;;
19434;SDS011;9853;50.848;4.108;2022-11-20T14:02:15;2.23;;;1.30;;
19434;SDS011;9853;50.848;4.108;2022-11-20T14:04:21;2.07;;;1.40;;
19434;SDS011;9853;50.848;4.108;2022-11-20T14:06:29;2.73;;;1.27;;
19434;SDS011;9853;50.848;4.108;2022-11-20T14:08:38;1.40;;;1.20;;
19434;SDS011;9853;50.848;4.108;2022-11-20T14:10:45;3.00;;;1.43;;
19434;SDS011;9853;50.848;4.108;2022-11-20T14:12:52;2.60;;;1.35;;
19434;SDS011;9853;50.848;4.108;2022-11-20T14:14:56;4.30;;;1.60;;
19434;SDS011;9853;50.848;4.108;2022-11-20T14:17:17;2.10;;;1.40;;
19434;SDS011;9853;50.848;4.108;2022-11-20T14:19:39;1.55;;;1.30;;
19434;SDS011;9853;50.848;4.108;2022-11-20T14:21:43;1.42;;;1.30;;
19434;SDS011;9853;50.848;4.108;2022-11-20T14:23:46;2.93;;;1.60;;
19434;SDS011;9853;50.848;4.108;2022-11-20T14:25:55;2.45;;;1.50;;
19434;SDS011;9853;50.848;4.108;2022-11-20T14:27:57;2.03;;;1.30;;
19434;SDS011;9853;50.848;4.108;2022-11-20T14:30:00;3.72;;;1.75;;
19434;SDS011;9853;50.848;4.108;2022-11-20T14:32:02;4.07;;;1.30;;
19434;SDS011;9853;50.848;4.108;2022-11-20T14:34:14;3.38;;;2.10;;
19434;SDS011;9853;50.848;4.108;2022-11-20T14:36:19;5.70;;;1.75;;
19434;SDS011;9853;50.848;4.108;2022-11-20T14:38:28;5.55;;;1.75;;
19434;SDS011;9853;50.848;4.108;2022-11-20T14:40:33;4.25;;;1.92;;
19434;SDS011;9853;50.848;4.108;2022-11-20T14:42:35;4.57;;;2.10;;
19434;SDS011;9853;50.848;4.108;2022-11-20T14:44:37;4.13;;;2.08;;
19434;SDS011;9853;50.848;4.108;2022-11-20T14:46:56;4.30;;;2.00;;
19434;SDS011;9853;50.848;4.108;2022-11-20T14:49:01;5.35;;;1.77;;
19434;SDS011;9853;50.848;4.108;2022-11-20T14:53:27;6.93;;;2.00;;
19434;SDS011;9853;50.848;4.108;2022-11-20T14:55:53;4.95;;;2.40;;
19434;SDS011;9853;50.848;4.108;2022-11-20T14:57:57;31.42;;;16.02;;
19434;SDS011;9853;50.848;4.108;2022-11-20T15:02:14;13.93;;;5.80;;
19434;SDS011;9853;50.848;4.108;2022-11-20T15:04:17;86.28;;;48.85;;
19434;SDS011;9853;50.848;4.108;2022-11-20T15:06:25;10.30;;;4.13;;
19434;SDS011;9853;50.848;4.108;2022-11-20T15:09:02;6.13;;;2.40;;
19434;SDS011;9853;50.848;4.108;2022-11-20T15:11:28;9.82;;;4.88;;
19434;SDS011;9853;50.848;4.108;2022-11-20T15:13:41;5.07;;;2.75;;
19434;SDS011;9853;50.848;4.108;2022-11-20T15:15:50;24.17;;;14.10;;
19434;SDS011;9853;50.848;4.108;2022-11-20T15:20:27;13.55;;;7.30;;
19434;SDS011;9853;50.848;4.108;2022-11-20T15:22:51;14.55;;;8.40;;
19434;SDS011;9853;50.848;4.108;2022-11-20T15:24:58;24.45;;;17.27;;
19434;SDS011;9853;50.848;4.108;2022-11-20T15:27:12;13.48;;;7.95;;
19434;SDS011;9853;50.848;4.108;2022-11-20T15:29:13;12.13;;;5.00;;
19434;SDS011;9853;50.848;4.108;2022-11-20T15:31:45;9.38;;;3.15;;
19434;SDS011;9853;50.848;4.108;2022-11-20T15:34:05;13.80;;;3.10;;
19434;SDS011;9853;50.848;4.108;2022-11-20T15:36:16;14.55;;;2.50;;
19434;SDS011;9853;50.848;4.108;2022-11-20T15:38:52;14.18;;;3.70;;
19434;SDS011;9853;50.848;4.108;2022-11-20T15:41:23;14.50;;;4.13;;
19434;SDS011;9853;50.848;4.108;2022-11-20T15:46:20;10.65;;;3.15;;
19434;SDS011;9853;50.848;4.108;2022-11-20T15:48:29;15.25;;;3.40;;
19434;SDS011;9853;50.848;4.108;2022-11-20T15:51:03;16.15;;;4.53;;
19434;SDS011;9853;50.848;4.108;2022-11-20T15:53:14;20.33;;;4.70;;
19434;SDS011;9853;50.848;4.108;2022-11-20T15:55:20;15.10;;;3.60;;
19434;SDS011;9853;50.848;4.108;2022-11-20T15:57:21;16.95;;;3.78;;
19434;SDS011;9853;50.848;4.108;2022-11-20T15:59:22;16.05;;;4.05;;
19434;SDS011;9853;50.848;4.108;2022-11-20T16:01:22;25.70;;;5.30;;
19434;SDS011;9853;50.848;4.108;2022-11-20T16:03:23;17.98;;;4.68;;
19434;SDS011;9853;50.848;4.108;2022-11-20T16:05:27;23.55;;;4.72;;
19434;SDS011;9853;50.848;4.108;2022-11-20T16:07:31;24.45;;;4.50;;
19434;SDS011;9853;50.848;4.108;2022-11-20T16:09:37;20.35;;;7.63;;
19434;SDS011;9853;50.848;4.108;2022-11-20T16:11:39;20.20;;;5.60;;
19434;SDS011;9853;50.848;4.108;2022-11-20T16:13:40;22.60;;;6.40;;
19434;SDS011;9853;50.848;4.108;2022-11-20T16:16:03;20.63;;;5.65;;
19434;SDS011;9853;50.848;4.108;2022-11-20T16:18:12;21.15;;;4.30;;
19434;SDS011;9853;50.848;4.108;2022-11-20T16:20:17;17.48;;;3.13;;
19434;SDS011;9853;50.848;4.108;2022-11-20T16:22:17;30.42;;;11.93;;
19434;SDS011;9853;50.848;4.108;2022-11-20T16:24:19;32.00;;;8.15;;
19434;SDS011;9853;50.848;4.108;2022-11-20T16:26:20;37.72;;;14.10;;
19434;SDS011;9853;50.848;4.108;2022-11-20T16:28:23;20.58;;;3.67;;
19434;SDS011;9853;50.848;4.108;2022-11-20T16:30:23;32.17;;;8.82;;
19434;SDS011;9853;50.848;4.108;2022-11-20T16:32:24;29.10;;;4.65;;
19434;SDS011;9853;50.848;4.108;2022-11-20T16:34:25;14.80;;;5.50;;
19434;SDS011;9853;50.848;4.108;2022-11-20T16:36:28;28.58;;;7.43;;
19434;SDS011;9853;50.848;4.108;2022-11-20T16:38:29;31.50;;;12.55;;
19434;SDS011;9853;50.848;4.108;2022-11-20T16:40:33;28.73;;;4.65;;
19434;SDS011;9853;50.848;4.108;2022-11-20T16:42:41;23.42;;;5.28;;
19434;SDS011;9853;50.848;4.108;2022-11-20T16:44:45;27.45;;;6.07;;
19434;SDS011;9853;50.848;4.108;2022-11-20T16:46:46;23.38;;;4.93;;
19434;SDS011;9853;50.848;4.108;2022-11-20T16:48:54;24.90;;;4.80;;
19434;SDS011;9853;50.848;4.108;2022-11-20T16:51:03;23.30;;;5.95;;
19434;SDS011;9853;50.848;4.108;2022-11-20T16:53:08;20.15;;;4.18;;
19434;SDS011;9853;50.848;4.108;2022-11-20T16:55:09;32.45;;;5.65;;
19434;SDS011;9853;50.848;4.108;2022-11-20T16:57:23;19.48;;;4.55;;
19434;SDS011;9853;50.848;4.108;2022-11-20T16:59:47;26.20;;;5.40;;
19434;SDS011;9853;50.848;4.108;2022-11-20T17:01:48;21.25;;;3.60;;
19434;SDS011;9853;50.848;4.108;2022-11-20T17:03:54;20.30;;;4.10;;
19434;SDS011;9853;50.848;4.108;2022-11-20T17:06:17;22.80;;;3.80;;
19434;SDS011;9853;50.848;4.108;2022-11-20T17:08:27;23.20;;;4.05;;
19434;SDS011;9853;50.848;4.108;2022-11-20T17:10:29;26.17;;;4.10;;
19434;SDS011;9853;50.848;4.108;2022-11-20T17:12:30;21.92;;;3.35;;
19434;SDS011;9853;50.848;4.108;2022-11-20T17:14:31;20.90;;;3.60;;
19434;SDS011;9853;50.848;4.108;2022-11-20T17:16:42;22.15;;;3.80;;
19434;SDS011;9853;50.848;4.108;2022-11-20T17:19:07;21.65;;;3.72;;
19434;SDS011;9853;50.848;4.108;2022-11-20T17:21:40;22.52;;;4.05;;
19434;SDS011;9853;50.848;4.108;2022-11-20T17:23:41;27.23;;;3.58;;
19434;SDS011;9853;50.848;4.108;2022-11-20T17:25:43;23.80;;;3.63;;
19434;SDS011;9853;50.848;4.108;2022-11-20T17:27:46;19.23;;;3.53;;
19434;SDS011;9853;50.848;4.108;2022-11-20T17:29:47;18.73;;;3.58;;
19434;SDS011;9853;50.848;4.108;2022-11-20T17:31:48;23.85;;;3.80;;
19434;SDS011;9853;50.848;4.108;2022-11-20T17:33:49;26.70;;;4.03;;
19434;SDS011;9853;50.848;4.108;2022-11-20T17:35:50;19.77;;;3.97;;
19434;SDS011;9853;50.848;4.108;2022-11-20T17:37:51;23.80;;;4.45;;
19434;SDS011;9853;50.848;4.108;2022-11-20T17:39:52;23.83;;;3.53;;
19434;SDS011;9853;50.848;4.108;2022-11-20T17:41:55;17.23;;;3.60;;
19434;SDS011;9853;50.848;4.108;2022-11-20T17:44:14;33.03;;;7.88;;
19434;SDS011;9853;50.848;4.108;2022-11-20T17:46:18;28.90;;;4.72;;
19434;SDS011;9853;50.848;4.108;2022-11-20T17:48:21;21.00;;;4.05;;
19434;SDS011;9853;50.848;4.108;2022-11-20T17:50:22;18.73;;;5.47;;
19434;SDS011;9853;50.848;4.108;2022-11-20T17:52:23;22.65;;;4.85;;
19434;SDS011;9853;50.848;4.108;2022-11-20T17:54:24;23.35;;;4.47;;
19434;SDS011;9853;50.848;4.108;2022-11-20T17:56:24;20.50;;;4.65;;
19434;SDS011;9853;50.848;4.108;2022-11-20T17:58:44;26.23;;;3.88;;
19434;SDS011;9853;50.848;4.108;2022-11-20T18:00:45;30.33;;;8.15;;
19434;SDS011;9853;50.848;4.108;2022-11-20T18:02:45;26.17;;;4.47;;
19434;SDS011;9853;50.848;4.108;2022-11-20T18:04:46;22.35;;;4.45;;
19434;SDS011;9853;50.848;4.108;2022-11-20T18:06:47;27.05;;;6.95;;
19434;SDS011;9853;50.848;4.108;2022-11-20T18:08:50;22.95;;;4.82;;
19434;SDS011;9853;50.848;4.108;2022-11-20T18:10:50;27.77;;;6.35;;
19434;SDS011;9853;50.848;4.108;2022-11-20T18:12:51;68.78;;;26.67;;
19434;SDS011;9853;50.848;4.108;2022-11-20T18:14:53;30.50;;;7.00;;
19434;SDS011;9853;50.848;4.108;2022-11-20T18:16:54;24.42;;;5.45;;
19434;SDS011;9853;50.848;4.108;2022-11-20T18:18:57;29.92;;;6.65;;
19434;SDS011;9853;50.848;4.108;2022-11-20T18:20:58;39.08;;;13.43;;
19434;SDS011;9853;50.848;4.108;2022-11-20T18:23:03;33.83;;;8.98;;
19434;SDS011;9853;50.848;4.108;2022-11-20T18:25:09;58.20;;;18.85;;
19434;SDS011;9853;50.848;4.108;2022-11-20T18:27:17;21.95;;;7.43;;
19434;SDS011;9853;50.848;4.108;2022-11-20T19:28:35;36.80;;;11.60;;
19434;SDS011;9853;50.848;4.108;2022-11-20T19:30:40;40.50;;;11.00;;
19434;SDS011;9853;50.848;4.108;2022-11-20T19:32:46;29.50;;;12.13;;
19434;SDS011;9853;50.848;4.108;2022-11-20T19:34:57;24.87;;;5.40;;
19434;SDS011;9853;50.848;4.108;2022-11-20T19:36:58;33.30;;;10.67;;
19434;SDS011;9853;50.848;4.108;2022-11-20T19:39:06;29.63;;;12.57;;
19434;SDS011;9853;50.848;4.108;2022-11-20T19:41:34;32.77;;;10.63;;
19434;SDS011;9853;50.848;4.108;2022-11-20T19:43:36;69.67;;;35.27;;
19434;SDS011;9853;50.848;4.108;2022-11-20T19:45:40;27.63;;;5.80;;
19434;SDS011;9853;50.848;4.108;2022-11-20T19:47:42;44.93;;;19.60;;
19434;SDS011;9853;50.848;4.108;2022-11-20T19:49:42;30.83;;;9.00;;
19434;SDS011;9853;50.848;4.108;2022-11-20T19:51:47;27.43;;;6.47;;